ADDS METAR Data INFO
IDs: Format: Raw Decoded Include TAF

Data at: 0707 UTC 19 Oct 2017

K20V 190653Z AUTO 00000KT 10SM CLR 00/M06 A3030 RMK AO2
K20V 190630Z AUTO 00000KT 10SM CLR 00/M07 A3030 RMK AO2
K20V 190612Z AUTO 12003KT 10SM CLR 00/M06 A3031 RMK AO2
K20V 190548Z AUTO 00000KT 10SM CLR 01/M07 A3030 RMK AO2
K20V 190530Z AUTO 00000KT 10SM CLR 01/M07 A3030 RMK AO2
K20V 190512Z AUTO 00000KT 10SM CLR 01/M07 A3030 RMK AO2
K20V 190448Z AUTO 10003KT 10SM CLR 02/M08 A3030 RMK AO2
K20V 190430Z AUTO 00000KT 10SM CLR 02/M08 A3030 RMK AO2
K20V 190412Z AUTO 00000KT 10SM CLR 02/M08 A3031 RMK AO2
K20V 190348Z AUTO 00000KT 10SM CLR 03/M08 A3030 RMK AO2
K20V 190330Z AUTO 00000KT 10SM CLR 05/M09 A3029 RMK AO2
K20V 190312Z AUTO 11003KT 10SM CLR 06/M10 A3029 RMK AO2
K20V 190248Z AUTO 00000KT 10SM CLR 06/M10 A3029 RMK AO2
K20V 190230Z AUTO 00000KT 10SM CLR 07/M10 A3029 RMK AO2
K20V 190212Z AUTO 11004KT 10SM CLR 07/M11 A3029 RMK AO2
K20V 190112Z AUTO 00000KT 10SM CLR 13/M12 A3027 RMK AO2
K20V 190048Z AUTO 00000KT 10SM CLR 14/M12 A3027 RMK AO2
K20V 190030Z AUTO 29004KT 10SM CLR 16/M15 A3026 RMK AO2
K20V 190012Z AUTO 00000KT 10SM CLR 18/M17 A3026 RMK AO2
K20V 182353Z AUTO 00000KT 10SM CLR 20/M18 A3026 RMK AO2
K20V 182329Z AUTO 24004KT 10SM CLR 22/M20 A3025 RMK AO2
K20V 182312Z AUTO 25006KT 10SM CLR 23/M21 A3025 RMK AO2
K20V 182253Z AUTO 25005KT 10SM CLR 23/M22 A3025 RMK AO2
K20V 182229Z AUTO 23006KT 10SM CLR 23/M25 A3025 RMK AO2
K20V 182212Z AUTO 23009KT 10SM CLR 23/M25 A3026 RMK AO2
K20V 182150Z AUTO 24007KT 10SM CLR 23/M24 A3026 RMK AO2
K20V 182132Z AUTO 23005KT 10SM CLR 23/M24 A3026 RMK AO2
K20V 182114Z AUTO 25009KT 10SM CLR 23/M24 A3026 RMK AO2
K20V 182049Z AUTO 27008KT 10SM CLR 23/M22 A3027 RMK AO2
K20V 182012Z AUTO 32003KT 10SM CLR 21/M19 A3030 RMK AO2
K20V 181954Z AUTO 00000KT 10SM CLR 20/M17 A3031 RMK AO2
K20V 181930Z AUTO 00000KT 10SM CLR 19/M15 A3033 RMK AO2
K20V 181912Z AUTO 00000KT 10SM CLR 19/M14 A3034 RMK AO2
K20V 181854Z AUTO 00000KT 10SM CLR 18/M13 A3036 RMK AO2
K20V 181830Z AUTO 00000KT 10SM CLR 16/M13 A3037 RMK AO2
K20V 181812Z AUTO 00000KT 10SM CLR 15/M11 A3038 RMK AO2
K20V 181754Z AUTO 00000KT 10SM CLR 13/M11 A3039 RMK AO2
K20V 181730Z AUTO 00000KT 10SM CLR 11/M10 A3039 RMK AO2
K20V 181712Z AUTO 00000KT 10SM CLR 10/M09 A3040 RMK AO2
K20V 181654Z AUTO 00000KT 10SM CLR 08/M10 A3040 RMK AO2
K20V 181630Z AUTO 00000KT 10SM CLR 06/M08 A3041 RMK AO2
K20V 181612Z AUTO 00000KT 10SM CLR 05/M06 A3041 RMK AO2
K20V 181554Z AUTO 27004KT 10SM CLR 03/M05 A3040 RMK AO2
K20V 181530Z AUTO 33003KT 10SM CLR 02/M06 A3041 RMK AO2
K20V 181512Z AUTO 00000KT 10SM CLR 01/M06 A3040 RMK AO2
K20V 181453Z AUTO 00000KT 10SM CLR 00/M05 A3039 RMK AO2
K20V 181429Z AUTO 00000KT 10SM CLR M02/M06 A3039 RMK AO2
K20V 181412Z AUTO 00000KT 10SM CLR M04/M07 A3039 RMK AO2
K20V 181353Z AUTO 00000KT 10SM CLR M05/M08 A3038 RMK AO2
K20V 181329Z AUTO 00000KT 10SM CLR M05/M08 A3037 RMK AO2
K20V 181311Z AUTO 00000KT 10SM CLR M05/M08 A3036 RMK AO2
K20V 181251Z AUTO 00000KT 10SM CLR M05/M09 A3036 RMK AO2
K20V 181233Z AUTO 00000KT 10SM CLR M05/M08 A3035 RMK AO2
K20V 181211Z AUTO 00000KT 10SM CLR M05/M08 A3035 RMK AO2
K20V 181153Z AUTO 00000KT 10SM CLR M04/M08 A3035 RMK AO2
K20V 181129Z AUTO 00000KT 10SM CLR M04/M08 A3034 RMK AO2
K20V 181111Z AUTO 00000KT 10SM CLR M04/M08 A3034 RMK AO2
K20V 181054Z AUTO 00000KT 10SM CLR M05/M08 A3033 RMK AO2
K20V 181030Z AUTO 00000KT 10SM CLR M03/M07 A3032 RMK AO2
K20V 181012Z AUTO 00000KT 10SM CLR M04/M08 A3032 RMK AO2
K20V 180954Z AUTO 00000KT 10SM CLR M03/M07 A3031 RMK AO2
K20V 180930Z AUTO 00000KT 10SM CLR M03/M07 A3032 RMK AO2
K20V 180912Z AUTO 00000KT 10SM CLR M04/M07 A3032 RMK AO2
K20V 180850Z AUTO 00000KT 10SM CLR M02/M07 A3033 RMK AO2
K20V 180832Z AUTO 00000KT 10SM CLR M02/M07 A3033 RMK AO2
K20V 180814Z AUTO 00000KT 10SM CLR M02/M08 A3032 RMK AO2
K20V 180754Z AUTO 00000KT 10SM CLR M01/M07 A3032 RMK AO2
K20V 180730Z AUTO 00000KT 10SM CLR M01/M06 A3032 RMK AO2
K20V 180712Z AUTO 00000KT 10SM CLR M01/M07 A3032 RMK AO2
K20V 180653Z AUTO 00000KT 10SM CLR 00/M07 A3032 RMK AO2
K20V 180630Z AUTO 00000KT 10SM CLR M01/M07 A3031 RMK AO2
K20V 180612Z AUTO 00000KT 10SM CLR 01/M07 A3031 RMK AO2
K20V 180554Z AUTO 00000KT 10SM CLR 01/M07 A3032 RMK AO2
K20V 180530Z AUTO 00000KT 10SM CLR 01/M07 A3032 RMK AO2
K20V 180512Z AUTO 00000KT 10SM CLR 01/M07 A3032 RMK AO2
K20V 180454Z AUTO 00000KT 10SM CLR 03/M07 A3031 RMK AO2
K20V 180430Z AUTO 00000KT 10SM CLR 02/M08 A3031 RMK AO2
K20V 180412Z AUTO 00000KT 10SM CLR 03/M07 A3031 RMK AO2
K20V 180353Z AUTO 00000KT 10SM CLR 04/M08 A3031 RMK AO2
K20V 180329Z AUTO 00000KT 10SM CLR 03/M08 A3030 RMK AO2
K20V 180311Z AUTO 00000KT 10SM CLR 05/M08 A3030 RMK AO2
K20V 180253Z AUTO 11003KT 10SM CLR 05/M08 A3029 RMK AO2
K20V 180229Z AUTO 00000KT 10SM CLR 07/M10 A3030 RMK AO2
K20V 180212Z AUTO 00000KT 10SM CLR 07/M11 A3029 RMK AO2
K20V 180153Z AUTO 00000KT 10SM CLR 09/M12 A3029 RMK AO2
K20V 180129Z AUTO 00000KT 10SM CLR 12/M11 A3028 RMK AO2
K20V 180112Z AUTO 00000KT 10SM CLR 12/M13 A3028 RMK AO2
K20V 180053Z AUTO 31003KT 10SM CLR 15/M16 A3027 RMK AO2
K20V 180030Z AUTO 26004KT 10SM CLR 18/M20 A3027 RMK AO2
K20V 180012Z AUTO 00000KT 10SM CLR 18/M20 A3026 RMK AO2
K20V 172354Z AUTO 28007KT 10SM CLR 20/M20 A3027 RMK AO2
K20V 172330Z AUTO 25007KT 10SM CLR 22/M18 A3027 RMK AO2
K20V 172312Z AUTO 25010KT 10SM CLR 22/M20 A3027 RMK AO2
K20V 172248Z AUTO 22011G16KT 10SM CLR 23/M21 A3027 RMK AO2
K20V 172230Z AUTO 24010G14KT 10SM CLR 23/M21 A3028 RMK AO2
K20V 172212Z AUTO 23011KT 10SM CLR 23/M22 A3028 RMK AO2
K20V 172154Z AUTO 23011G17KT 10SM CLR 23/M21 A3029 RMK AO2
K20V 172130Z AUTO 25011G17KT 10SM CLR 23/M23 A3029 RMK AO2
K20V 172112Z AUTO 23010G18KT 10SM CLR 23/M22 A3030 RMK AO2
K20V 172054Z AUTO 22015KT 10SM CLR 22/M21 A3030 RMK AO2
K20V 172030Z AUTO 23011G16KT 10SM CLR 23/M21 A3031 RMK AO2
K20V 172012Z AUTO 00000KT 10SM CLR 20/M18 A3032 RMK AO2
K20V 171954Z AUTO 13007KT 104V164 10SM CLR 19/M18 A3033 RMK AO2
K20V 171930Z AUTO 13003KT 10SM CLR 18/M16 A3035 RMK AO2
K20V 171912Z AUTO 11005KT 10SM CLR 17/M15 A3037 RMK AO2